Time;durP1;ratioP1;P1;durP2;ratioP2;P2;SDS_P1;SDS_P2;PMS_P1;PMS_P2;Temp;Humidity;BMP_temperature;BMP_pressure;BME280_temperature;BME280_humidity;BME280_pressure;Samples;Min_cycle;Max_cycle;Signal;HPM_P1;HPM_P2
2022/12/15 00:38:56;;;;;;;19.92;16.45;;;;;;;3.25;100.00;100918.41;2096979;28;20646;-61
2022/12/15 00:40:03;;;;;;;20.47;17.10;;;;;;;3.25;100.00;100915.66;2091509;28;20198;-62
2022/12/15 00:41:04;;;;;;;18.60;15.48;;;;;;;2.58;100.00;100825.75;2090819;28;20201;-62
2022/12/15 00:42:08;;;;;;;18.30;16.27;;;;;;;2.55;100.00;100805.41;2096645;28;20197;-62
2022/12/15 00:43:10;;;;;;;20.08;16.13;;;;;;;3.28;100.00;100923.09;2093564;28;20198;-62
2022/12/15 00:44:11;;;;;;;19.92;16.55;;;;;;;3.27;100.00;100927.00;2094957;28;20185;-62
2022/12/15 00:45:11;;;;;;;18.30;15.63;;;;;;;3.33;100.00;100922.75;2088082;28;20177;-62
2022/12/15 00:47:32;;;;;;;18.65;15.55;;;;;;;3.38;100.00;100949.06;2092391;28;20234;-62
2022/12/15 00:48:32;;;;;;;16.55;14.35;;;;;;;3.40;100.00;100927.53;2088316;28;20181;-62
2022/12/15 00:50:52;;;;;;;16.33;13.90;;;;;;;3.45;100.00;100933.44;2088444;28;20161;-62
2022/12/15 01:20:59;;;;;;;15.27;13.10;;;;;;;3.07;100.00;100930.28;2088091;28;20236;-62
2022/12/15 01:21:59;;;;;;;16.13;13.40;;;;;;;3.02;100.00;100936.09;2098948;28;20286;-61
2022/12/15 01:23:00;;;;;;;13.90;12.40;;;;;;;2.97;100.00;100926.28;2097675;28;20214;-61
2022/12/15 01:24:00;;;;;;;14.90;13.20;;;;;;;2.96;100.00;100916.50;2094169;28;20206;-62
2022/12/15 01:25:01;;;;;;;14.20;12.70;;;;;;;3.07;100.00;100935.78;2087700;28;20177;-62
2022/12/15 01:26:02;;;;;;;14.93;13.33;;;;;;;2.99;100.00;100956.81;2088274;28;20184;-62
2022/12/15 01:27:02;;;;;;;16.90;13.57;;;;;;;2.99;100.00;100947.81;2096679;28;20272;-62
2022/12/15 01:28:03;;;;;;;14.10;12.33;;;;;;;2.99;100.00;100947.81;2095863;28;20184;-62
2022/12/15 01:29:03;;;;;;;13.93;11.80;;;;;;;2.98;100.00;100949.00;2097979;28;20223;-62
2022/12/15 01:30:06;;;;;;;14.13;12.53;;;;;;;2.94;100.00;100959.91;2095618;28;20671;-61
2022/12/15 01:31:10;;;;;;;16.13;12.77;;;;;;;2.65;100.00;100913.38;2092502;28;20360;-62
2022/12/15 01:32:11;;;;;;;16.33;13.00;;;;;;;2.92;100.00;100959.47;2096518;28;20508;-62
2022/12/15 01:33:14;;;;;;;14.48;12.55;;;;;;;2.92;100.00;100959.47;2093557;28;20182;-62
2022/12/15 01:34:14;;;;;;;15.15;13.02;;;;;;;2.86;100.00;100955.50;2087540;28;20171;-62
2022/12/15 01:35:16;;;;;;;13.87;12.40;;;;;;;2.59;100.00;100921.13;2087756;28;20217;-62
2022/12/15 01:36:16;;;;;;;14.15;12.57;;;;;;;2.77;100.00;100957.72;2097093;28;20180;-63
2022/12/15 01:37:17;;;;;;;17.03;13.60;;;;;;;2.68;100.00;100956.44;2095830;28;20279;-62
2022/12/15 01:38:17;;;;;;;15.77;14.07;;;;;;;2.57;100.00;100948.06;2096348;28;20654;-62
2022/12/15 01:39:18;;;;;;;17.20;13.20;;;;;;;2.60;100.00;100947.34;2091189;28;20216;-62
2022/12/15 01:41:38;;;;;;;16.13;13.57;;;;;;;2.65;100.00;100952.47;2094956;28;20278;-61
2022/12/15 01:42:39;;;;;;;14.97;13.13;;;;;;;2.62;100.00;100953.22;2092222;28;20210;-62
2022/12/15 01:43:40;;;;;;;15.80;12.83;;;;;;;2.47;100.00;100939.72;2092534;28;20280;-61
2022/12/15 01:44:40;;;;;;;16.57;13.90;;;;;;;2.48;100.00;100952.25;2094147;28;20528;-61
2022/12/15 01:45:54;;;;;;;16.13;13.70;;;;;;;2.48;100.00;100958.50;2089175;28;20193;-62
2022/12/15 01:46:55;;;;;;;18.20;14.75;;;;;;;2.56;100.00;100959.41;2094007;28;20557;-62
2022/12/15 01:48:06;;;;;;;17.47;14.37;;;;;;;2.62;100.00;100957.91;2094707;28;20200;-62
2022/12/15 01:49:22;;;;;;;18.05;14.15;;;;;;;2.71;100.00;100970.16;2089881;28;20425;-62
2022/12/15 01:50:24;;;;;;;15.57;13.43;;;;;;;1.90;100.00;100830.75;2095902;28;20239;-62
2022/12/15 01:51:25;;;;;;;14.48;12.38;;;;;;;2.83;100.00;100978.13;2096365;28;20184;-62
2022/12/15 01:52:25;;;;;;;13.77;12.37;;;;;;;1.96;100.00;100840.97;2096328;28;20184;-61
2022/12/15 01:53:28;;;;;;;14.00;12.33;;;;;;;2.99;100.00;100975.97;2088790;28;20173;-61
2022/12/15 01:54:36;;;;;;;12.75;11.45;;;;;;;3.11;100.00;100981.22;2090218;28;20202;-62
2022/12/15 01:55:39;;;;;;;11.77;10.57;;;;;;;3.22;100.00;100973.09;2096333;28;20663;-62
2022/12/15 01:56:45;;;;;;;11.82;10.52;;;;;;;3.33;100.00;100968.56;2092542;28;20186;-61
2022/12/15 01:57:47;;;;;;;11.35;10.23;;;;;;;3.41;100.00;100968.25;2090099;28;20185;-62
2022/12/15 01:58:50;;;;;;;11.63;10.43;;;;;;;3.43;100.00;100956.91;2088210;28;20313;-62
2022/12/15 01:59:54;;;;;;;12.23;10.45;;;;;;;3.48;100.00;100956.56;2092053;28;20198;-61
2022/12/15 02:00:55;;;;;;;11.95;10.75;;;;;;;3.50;100.00;100952.28;2090924;28;20675;-61
2022/12/15 02:01:55;;;;;;;13.00;11.57;;;;;;;3.63;100.00;100950.84;2096331;28;20577;-62
2022/12/15 02:02:58;;;;;;;12.27;10.97;;;;;;;3.65;100.00;100939.53;2094764;28;20313;-61
2022/12/15 02:04:00;;;;;;;12.23;10.98;;;;;;;3.70;100.00;100944.66;2094409;28;20447;-63
2022/12/15 02:05:03;;;;;;;12.25;11.05;;;;;;;3.74;100.00;100931.78;2097071;28;20182;-61
2022/12/15 02:06:05;;;;;;;12.63;11.32;;;;;;;3.77;100.00;100931.81;2088213;28;20188;-62
2022/12/15 02:07:05;;;;;;;12.80;11.50;;;;;;;3.79;100.00;100934.94;2094344;28;20273;-61
2022/12/15 02:08:07;;;;;;;12.50;11.20;;;;;;;3.80;100.00;100931.03;2095134;28;20213;-62
2022/12/15 02:09:07;;;;;;;12.60;11.30;;;;;;;3.86;100.00;100929.50;2096490;28;20194;-62
2022/12/15 02:10:10;;;;;;;12.10;10.90;;;;;;;3.91;100.00;100933.88;2092325;28;20661;-62
2022/12/15 02:11:18;;;;;;;12.50;11.30;;;;;;;3.98;100.00;100942.13;2088490;28;20551;-62
2022/12/15 02:12:40;;;;;;;11.85;10.65;;;;;;;4.05;100.00;100942.22;2092765;28;20694;-61
2022/12/15 02:13:58;;;;;;;11.18;10.02;;;;;;;4.09;100.00;100943.78;2093257;28;20194;-62
2022/12/15 02:15:16;;;;;;;10.95;9.65;;;;;;;4.14;100.00;100951.66;2090293;28;20189;-61
2022/12/15 02:16:26;;;;;;;11.35;10.15;;;;;;;4.16;100.00;100941.09;2097082;28;20623;-62
2022/12/15 02:17:31;;;;;;;11.15;10.00;;;;;;;4.19;100.00;100945.03;2094669;28;20194;-61
2022/12/15 02:18:44;;;;;;;10.70;9.60;;;;;;;4.23;100.00;100945.84;2090458;28;20188;-62
2022/12/15 02:20:07;;;;;;;11.00;9.90;;;;;;;4.28;100.00;100948.22;2090075;28;20194;-62
2022/12/15 02:21:18;;;;;;;10.85;9.75;;;;;;;4.29;100.00;100953.34;2089698;28;20578;-61
2022/12/15 02:22:54;;;;;;;10.43;9.32;;;;;;;3.57;100.00;100842.75;2090933;28;20186;-62
2022/12/15 02:24:06;;;;;;;9.95;8.88;;;;;;;4.28;100.00;100946.28;2068365;28;20216;-62
2022/12/15 02:25:21;;;;;;;9.88;8.88;;;;;;;3.36;100.00;100801.50;2073298;28;20198;-62
2022/12/15 02:26:40;;;;;;;10.43;9.27;;;;;;;4.35;100.00;100948.28;2094996;28;20201;-61
2022/12/15 02:27:52;;;;;;;11.90;9.20;;;;;;;4.37;100.00;100943.19;2088904;28;20253;-61
2022/12/15 02:29:16;;;;;;;10.77;9.45;;;;;;;4.37;100.00;100948.69;2097203;28;20187;-61
2022/12/15 02:30:42;;;;;;;10.20;9.20;;;;;;;4.36;100.00;100944.38;2097809;28;20660;-62
2022/12/15 02:31:58;;;;;;;10.23;9.13;;;;;;;4.38;100.00;100939.28;2091677;28;20176;-62
2022/12/15 02:33:25;;;;;;;10.95;9.40;;;;;;;4.34;100.00;100944.75;2094506;28;20191;-61
2022/12/15 02:34:33;;;;;;;10.27;8.90;;;;;;;3.90;100.00;100872.75;2095956;28;20174;-61
2022/12/15 02:35:48;;;;;;;10.73;9.63;;;;;;;4.40;100.00;100947.91;2091451;28;20705;-61
2022/12/15 02:36:57;;;;;;;9.25;8.32;;;;;;;4.40;100.00;100962.44;2092240;28;20268;-61
2022/12/15 02:37:57;;;;;;;10.63;9.40;;;;;;;4.30;100.00;100929.41;2090292;28;20196;-62
2022/12/15 02:38:57;;;;;;;11.23;9.47;;;;;;;4.45;100.00;100958.53;2089823;28;20199;-63
2022/12/15 02:39:58;;;;;;;11.13;9.83;;;;;;;4.46;100.00;100947.16;2092029;28;20191;-63
2022/12/15 02:41:00;;;;;;;12.13;9.37;;;;;;;4.10;100.00;100896.00;2089598;28;20184;-62
2022/12/15 02:42:01;;;;;;;10.27;9.18;;;;;;;4.48;100.00;100947.59;2090665;28;20555;-62
2022/12/15 02:43:04;;;;;;;10.27;9.23;;;;;;;4.44;100.00;100943.25;2089943;28;20214;-63
2022/12/15 02:44:11;;;;;;;10.77;9.65;;;;;;;3.70;100.00;100833.06;2096211;28;20177;-62
2022/12/15 02:45:15;;;;;;;10.70;9.60;;;;;;;4.50;100.00;100963.66;2098025;28;20203;-61
2022/12/15 02:46:54;;;;;;;10.63;9.52;;;;;;;4.53;100.00;100960.94;2090308;28;20253;-61
2022/12/15 02:48:19;;;;;;;11.15;9.95;;;;;;;4.53;100.00;100960.94;2088958;28;20223;-61
2022/12/15 02:49:34;;;;;;;10.52;8.88;;;;;;;3.62;100.00;100823.22;2089639;28;20199;-61
2022/12/15 02:51:03;;;;;;;9.93;8.93;;;;;;;4.50;100.00;100944.44;2089490;28;20199;-62
2022/12/15 02:52:14;;;;;;;10.80;9.70;;;;;;;4.51;100.00;100946.81;2093446;28;20202;-61
2022/12/15 02:53:14;;;;;;;10.55;9.25;;;;;;;4.51;100.00;100946.81;2094348;28;20175;-62
2022/12/15 02:54:36;;;;;;;10.50;9.43;;;;;;;4.50;100.00;100950.72;2089720;28;20176;-62
2022/12/15 02:55:49;;;;;;;10.20;9.20;;;;;;;4.48;100.00;100946.78;2089186;28;20171;-61
2022/12/15 02:57:16;;;;;;;10.07;9.07;;;;;;;4.44;100.00;100946.78;2090283;28;20567;-61
2022/12/15 02:58:44;;;;;;;10.52;9.35;;;;;;;4.32;100.00;100925.13;2093382;28;20222;-62
2022/12/15 02:59:55;;;;;;;9.98;8.98;;;;;;;3.72;100.00;100846.38;2095932;28;20225;-62
2022/12/15 03:01:24;;;;;;;10.68;9.05;;;;;;;4.43;100.00;100933.44;2097677;28;20188;-62
2022/12/15 03:02:29;;;;;;;10.23;8.98;;;;;;;3.64;100.00;100834.56;2096127;28;20182;-62
2022/12/15 03:03:32;;;;;;;10.48;9.25;;;;;;;4.41;100.00;100942.03;2090352;28;20631;-62
2022/12/15 03:04:33;;;;;;;9.73;8.73;;;;;;;4.41;100.00;100939.31;2105882;28;20189;-62
2022/12/15 03:05:33;;;;;;;10.20;9.17;;;;;;;4.44;100.00;100927.56;2098553;28;20184;-62
2022/12/15 03:06:34;;;;;;;9.90;8.90;;;;;;;4.46;100.00;100921.69;2097512;28;20668;-61
2022/12/15 03:07:34;;;;;;;9.83;8.83;;;;;;;4.43;100.00;100926.00;2096828;28;20203;-61
2022/12/15 03:08:35;;;;;;;9.90;8.73;;;;;;;4.44;100.00;100921.28;2097228;28;20191;-62
2022/12/15 03:09:35;;;;;;;10.30;9.20;;;;;;;4.45;100.00;100911.88;2097154;28;20257;-61
2022/12/15 03:10:36;;;;;;;10.00;8.90;;;;;;;4.42;100.00;100918.91;2097563;28;20175;-61
2022/12/15 03:11:37;;;;;;;9.70;8.67;;;;;;;4.44;100.00;100918.53;2097590;28;20179;-61
2022/12/15 03:12:37;;;;;;;9.97;8.97;;;;;;;4.42;100.00;100918.91;2098186;28;20211;-62
2022/12/15 03:13:37;;;;;;;10.47;8.83;;;;;;;4.22;100.00;100892.97;2090745;28;20199;-62
2022/12/15 03:14:38;;;;;;;9.63;8.63;;;;;;;4.47;100.00;100923.28;2088901;28;20191;-61
2022/12/15 03:15:38;;;;;;;10.50;8.73;;;;;;;4.52;100.00;100922.91;2092610;28;20197;-62
2022/12/15 03:16:39;;;;;;;9.63;8.47;;;;;;;4.51;100.00;100918.59;2094378;28;20210;-61
2022/12/15 03:17:39;;;;;;;9.03;8.13;;;;;;;4.55;100.00;100911.16;2095646;28;20211;-62
2022/12/15 03:18:40;;;;;;;9.60;8.67;;;;;;;4.07;100.00;100836.44;2097525;28;20178;-61
2022/12/15 03:19:40;;;;;;;9.97;8.97;;;;;;;4.57;100.00;100917.81;2097439;28;20648;-61
2022/12/15 03:20:40;;;;;;;9.53;8.50;;;;;;;4.58;100.00;100915.88;2097524;28;20182;-61
2022/12/15 03:21:41;;;;;;;10.07;8.43;;;;;;;4.13;100.00;100845.88;2090554;28;20563;-61
2022/12/15 03:22:41;;;;;;;9.63;8.63;;;;;;;4.63;100.00;100919.06;2090375;28;20211;-61
2022/12/15 03:23:42;;;;;;;9.97;8.70;;;;;;;4.14;100.00;100839.22;2089684;28;20233;-62
2022/12/15 03:24:42;;;;;;;9.93;8.43;;;;;;;4.09;100.00;100831.34;2088651;28;20200;-62
2022/12/15 03:25:44;;;;;;;9.33;8.43;;;;;;;4.64;100.00;100922.56;2089049;28;20203;-61
2022/12/15 03:26:48;;;;;;;9.60;8.60;;;;;;;4.60;100.00;100919.00;2091538;28;20673;-62
2022/12/15 03:27:49;;;;;;;9.55;8.55;;;;;;;4.55;100.00;100911.16;2096545;28;20225;-61
2022/12/15 03:28:49;;;;;;;9.77;8.77;;;;;;;4.61;100.00;100918.63;2097936;28;20178;-61
2022/12/15 03:29:50;;;;;;;8.97;8.07;;;;;;;4.60;100.00;100913.53;2089869;28;20608;-62
2022/12/15 03:30:50;;;;;;;10.13;8.17;;;;;;;4.61;100.00;100909.63;2095473;28;20187;-62
2022/12/15 03:31:50;;;;;;;8.67;7.77;;;;;;;4.53;100.00;100900.56;2092137;28;20253;-61
2022/12/15 03:32:51;;;;;;;11.30;8.20;;;;;;;4.60;100.00;100914.31;2097152;28;20187;-61
2022/12/15 03:33:51;;;;;;;9.20;8.30;;;;;;;4.35;100.00;100875.00;2097644;28;20631;-61
2022/12/15 03:34:52;;;;;;;9.57;8.63;;;;;;;4.60;100.00;100903.34;2097629;28;20179;-62
2022/12/15 03:35:52;;;;;;;9.17;8.13;;;;;;;4.60;100.00;100899.78;2095446;28;20182;-62
2022/12/15 03:36:53;;;;;;;9.30;8.40;;;;;;;4.61;100.00;100899.41;2089702;28;20645;-62
2022/12/15 03:37:53;;;;;;;9.67;8.27;;;;;;;4.62;100.00;100900.22;2096871;28;20689;-61
2022/12/15 03:38:53;;;;;;;9.47;8.57;;;;;;;4.57;100.00;100886.88;2096232;28;20255;-61
2022/12/15 03:39:54;;;;;;;9.17;8.27;;;;;;;4.14;100.00;100827.44;2097248;28;20266;-62
2022/12/15 03:40:55;;;;;;;9.95;8.95;;;;;;;4.63;100.00;100896.28;2093781;28;20340;-62
2022/12/15 03:41:55;;;;;;;9.40;8.40;;;;;;;3.93;100.00;100784.25;2096898;28;20195;-62
2022/12/15 03:42:56;;;;;;;8.90;8.00;;;;;;;4.59;100.00;100892.75;2093685;28;20228;-62
2022/12/15 03:43:57;;;;;;;9.95;8.88;;;;;;;4.59;100.00;100895.50;2094743;28;20171;-61
2022/12/15 03:44:57;;;;;;;9.30;8.30;;;;;;;4.54;100.00;100893.09;2089082;28;20179;-62
2022/12/15 03:45:58;;;;;;;10.10;9.10;;;;;;;4.64;100.00;100914.34;2088980;28;20172;-62
2022/12/15 03:46:58;;;;;;;9.00;8.10;;;;;;;4.64;100.00;100923.38;2092371;28;20201;-61
2022/12/15 03:47:59;;;;;;;9.90;8.53;;;;;;;4.65;100.00;100935.91;2090104;28;20595;-61
2022/12/15 03:48:59;;;;;;;9.20;8.07;;;;;;;4.66;100.00;100933.97;2094690;28;20199;-61
2022/12/15 03:50:00;;;;;;;9.47;8.47;;;;;;;4.63;100.00;100938.28;2093364;28;20196;-62
2022/12/15 03:51:00;;;;;;;9.33;8.43;;;;;;;3.37;100.00;100744.75;2089001;28;20672;-61
2022/12/15 03:52:01;;;;;;;9.37;8.40;;;;;;;4.64;100.00;100941.78;2096184;28;20207;-62
2022/12/15 03:53:03;;;;;;;9.50;8.60;;;;;;;4.60;100.00;100938.22;2097190;28;20203;-63
2022/12/15 03:54:03;;;;;;;9.05;8.15;;;;;;;4.58;100.00;100935.88;2098133;28;20204;-61
2022/12/15 03:55:04;;;;;;;8.83;7.93;;;;;;;4.55;100.00;100930.34;2097663;28;20194;-62
2022/12/15 03:56:05;;;;;;;9.52;8.63;;;;;;;3.91;100.00;100838.66;2096148;28;20706;-62
2022/12/15 03:57:05;;;;;;;9.47;8.57;;;;;;;4.61;100.00;100926.88;2097149;28;20571;-61
2022/12/15 03:58:06;;;;;;;9.80;8.80;;;;;;;4.63;100.00;100930.03;2092147;28;20195;-61
2022/12/15 03:59:07;;;;;;;10.03;8.73;;;;;;;4.58;100.00;100924.91;2088849;28;20245;-61
2022/12/15 04:00:07;;;;;;;9.77;8.77;;;;;;;4.16;100.00;100856.06;2088976;28;20180;-61
2022/12/15 04:01:22;;;;;;;9.97;8.97;;;;;;;4.64;100.00;100937.09;2097230;28;20251;-62
2022/12/15 04:02:22;;;;;;;9.88;8.88;;;;;;;4.61;100.00;100937.09;2096885;28;20408;-62
2022/12/15 04:03:23;;;;;;;9.63;8.63;;;;;;;4.61;100.00;100943.34;2096657;28;20180;-61
2022/12/15 04:04:23;;;;;;;9.37;8.47;;;;;;;4.61;100.00;100939.81;2089809;28;20265;-62
2022/12/15 04:05:31;;;;;;;10.27;9.23;;;;;;;4.62;100.00;100950.41;2095398;28;20243;-61
2022/12/15 04:06:31;;;;;;;10.05;8.60;;;;;;;4.60;100.00;100947.25;2089227;28;20671;-61
2022/12/15 04:07:32;;;;;;;10.07;8.70;;;;;;;3.79;100.00;100819.03;2091532;28;20568;-61
2022/12/15 04:08:32;;;;;;;9.60;8.60;;;;;;;4.60;100.00;100952.75;2097017;28;20193;-62
2022/12/15 04:09:33;;;;;;;9.60;8.60;;;;;;;4.58;100.00;100957.84;2096445;28;20212;-62
2022/12/15 04:10:34;;;;;;;10.20;8.63;;;;;;;4.57;100.00;100971.94;2095595;28;20268;-62
2022/12/15 04:11:35;;;;;;;11.30;9.07;;;;;;;4.59;100.00;100977.81;2097459;28;20178;-62
2022/12/15 04:12:38;;;;;;;10.93;9.30;;;;;;;4.35;100.00;100959.25;2095602;28;20200;-62
2022/12/15 04:13:39;;;;;;;10.18;8.80;;;;;;;3.96;100.00;100889.66;2089685;28;20180;-62
2022/12/15 04:14:41;;;;;;;10.20;9.20;;;;;;;4.64;100.00;101004.91;2097875;28;20180;-62
2022/12/15 04:15:41;;;;;;;9.68;8.65;;;;;;;4.66;100.00;101011.59;2096796;28;20739;-62
2022/12/15 04:16:42;;;;;;;9.60;8.60;;;;;;;4.62;100.00;101013.53;2090765;28;20783;-62
2022/12/15 04:17:42;;;;;;;11.50;8.97;;;;;;;4.62;100.00;101018.25;2092473;28;20279;-62
2022/12/15 04:18:43;;;;;;;10.50;9.40;;;;;;;4.60;100.00;101023.31;2092450;28;20961;-62
2022/12/15 04:20:16;;;;;;;9.47;8.47;;;;;;;4.57;100.00;101032.34;2091580;28;20675;-62
2022/12/15 04:21:10;;;;;;;9.82;8.82;;;;;;;4.54;100.00;101033.88;2094777;28;20687;-62
2022/12/15 04:22:10;;;;;;;10.50;9.30;;;;;;;4.48;100.00;101029.13;2092961;28;20216;-63
2022/12/15 04:23:11;;;;;;;11.00;9.50;;;;;;;3.57;100.00;100911.25;2092021;28;20213;-61
2022/12/15 05:31:51;;;;;;;10.70;9.60;;;;;;;4.56;100.00;101047.22;2094285;28;20641;-60
2022/12/15 05:32:51;;;;;;;13.48;10.65;;;;;;;4.59;100.00;101050.00;2090939;28;20186;-59
2022/12/15 05:33:55;;;;;;;10.60;9.27;;;;;;;4.63;100.00;101052.75;2094978;28;20190;-60
2022/12/15 05:34:56;;;;;;;12.07;10.43;;;;;;;4.65;100.00;101058.63;2096094;28;20196;-59
2022/12/15 05:35:57;;;;;;;12.30;10.67;;;;;;;4.68;100.00;101047.72;2093741;28;20689;-61
2022/12/15 05:36:59;;;;;;;12.20;10.50;;;;;;;4.71;100.00;101057.91;2095180;28;20193;-61
2022/12/15 05:37:59;;;;;;;10.48;9.38;;;;;;;4.75;100.00;101046.94;2093920;28;20284;-59
2022/12/15 05:39:00;;;;;;;10.67;9.57;;;;;;;4.75;100.00;101042.25;2093811;28;20689;-63
2022/12/15 05:40:00;;;;;;;10.87;9.27;;;;;;;4.76;100.00;101040.28;2093342;28;20302;-62
2022/12/15 05:41:01;;;;;;;11.23;10.00;;;;;;;4.73;100.00;101038.31;2092479;28;20254;-62
2022/12/15 05:42:01;;;;;;;11.80;10.50;;;;;;;4.73;100.00;101043.81;2089082;28;20201;-62
2022/12/15 05:43:02;;;;;;;10.77;9.27;;;;;;;4.76;100.00;101051.25;2094116;28;20650;-62
2022/12/15 05:44:03;;;;;;;9.73;8.73;;;;;;;4.77;100.00;101050.88;2092314;28;20250;-62
2022/12/15 05:45:04;;;;;;;10.97;9.77;;;;;;;4.72;100.00;101031.25;2093491;28;20198;-63
2022/12/15 05:46:04;;;;;;;10.88;9.43;;;;;;;4.81;100.00;101045.41;2093453;28;20191;-63
2022/12/15 05:47:07;;;;;;;9.30;8.40;;;;;;;4.84;100.00;101039.97;2092027;28;20928;-63
2022/12/15 05:48:07;;;;;;;10.85;9.73;;;;;;;4.84;100.00;101050.16;2100262;28;20189;-63
2022/12/15 05:49:10;;;;;;;10.27;9.17;;;;;;;4.71;100.00;101021.41;2094391;28;20781;-62
2022/12/15 05:50:11;;;;;;;10.88;8.88;;;;;;;4.88;100.00;101051.72;2091295;28;20641;-63
2022/12/15 05:51:12;;;;;;;12.90;11.60;;;;;;;4.89;100.00;101053.34;2092501;28;20206;-63
2022/12/15 05:52:12;;;;;;;13.38;11.98;;;;;;;4.93;100.00;101056.88;2092012;28;20194;-63
2022/12/15 05:53:13;;;;;;;15.07;12.60;;;;;;;3.89;100.00;100893.13;2089874;28;20232;-62
2022/12/15 05:54:16;;;;;;;11.67;10.43;;;;;;;4.98;100.00;101061.22;2091511;28;20210;-63
2022/12/15 05:55:18;;;;;;;13.82;11.35;;;;;;;4.90;100.00;101057.66;2101403;28;20188;-63
2022/12/15 05:56:18;;;;;;;14.00;11.85;;;;;;;4.96;100.00;101058.06;2094462;28;20703;-62
2022/12/15 05:57:19;;;;;;;12.40;10.53;;;;;;;4.96;100.00;101066.28;2091116;28;20624;-63
2022/12/15 05:58:19;;;;;;;10.67;9.17;;;;;;;4.60;100.00;101015.88;2092700;28;20207;-63
2022/12/15 05:59:20;;;;;;;10.70;9.50;;;;;;;4.87;100.00;101050.16;2091201;28;20195;-63
2022/12/15 06:00:21;;;;;;;15.73;13.80;;;;;;;4.95;100.00;101059.22;2093546;28;20218;-63
2022/12/15 06:01:22;;;;;;;14.97;13.37;;;;;;;4.95;100.00;101060.03;2093263;28;20238;-64
2022/12/15 06:02:23;;;;;;;19.55;16.50;;;;;;;4.63;100.00;101028.06;2096499;28;20189;-63
2022/12/15 06:03:23;;;;;;;17.90;15.93;;;;;;;4.98;100.00;101066.72;2093006;28;20284;-63
2022/12/15 06:04:24;;;;;;;14.67;11.97;;;;;;;4.98;100.00;101074.94;2094000;28;20621;-63
2022/12/15 06:05:24;;;;;;;14.03;11.10;;;;;;;4.76;100.00;101049.31;2093657;28;20204;-63
2022/12/15 06:06:24;;;;;;;12.63;10.50;;;;;;;4.95;100.00;101086.69;2090023;28;20204;-63
2022/12/15 06:07:25;;;;;;;11.60;9.57;;;;;;;4.97;100.00;101093.38;2092155;28;20224;-62
2022/12/15 06:08:29;;;;;;;13.60;9.97;;;;;;;4.96;100.00;101086.31;2096312;28;20613;-63
2022/12/15 06:09:30;;;;;;;12.32;10.80;;;;;;;4.91;100.00;101080.38;2088398;28;20743;-63
2022/12/15 06:10:30;;;;;;;13.07;9.93;;;;;;;4.95;100.00;101098.47;2091823;28;20203;-62
2022/12/15 06:11:31;;;;;;;12.37;10.43;;;;;;;4.94;100.00;101096.91;2093048;28;20647;-63
2022/12/15 06:12:31;;;;;;;12.83;10.90;;;;;;;4.97;100.00;101104.38;2093109;28;20661;-63
2022/12/15 06:13:34;;;;;;;14.77;11.70;;;;;;;4.97;100.00;101092.63;2093118;28;20327;-63
2022/12/15 06:14:35;;;;;;;13.18;10.60;;;;;;;4.98;100.00;101092.22;2095994;28;20676;-63
2022/12/15 06:15:35;;;;;;;16.87;11.93;;;;;;;4.96;100.00;101088.25;2092991;28;20581;-63
2022/12/15 06:16:36;;;;;;;12.97;9.87;;;;;;;4.21;100.00;100975.63;2092365;28;20504;-64
2022/12/15 06:17:36;;;;;;;11.67;9.60;;;;;;;4.93;100.00;101084.31;2091774;28;20209;-63
2022/12/15 06:18:39;;;;;;;10.87;9.73;;;;;;;4.93;100.00;101086.31;2092367;28;20879;-63
2022/12/15 06:19:40;;;;;;;12.60;9.82;;;;;;;4.86;100.00;101081.53;2093526;28;20200;-63
2022/12/15 06:20:40;;;;;;;11.60;9.10;;;;;;;4.73;100.00;101060.28;2094882;28;20198;-63
2022/12/15 06:21:40;;;;;;;11.03;9.50;;;;;;;4.88;100.00;101094.91;2091390;28;20191;-63
2022/12/15 06:22:41;;;;;;;12.33;9.30;;;;;;;4.88;100.00;101089.41;2092536;28;20346;-63
2022/12/15 06:23:41;;;;;;;10.90;9.57;;;;;;;4.88;100.00;101095.66;2091455;28;20337;-63
2022/12/15 06:24:42;;;;;;;11.43;9.03;;;;;;;4.69;100.00;101059.47;2093019;28;20208;-63
2022/12/15 06:25:42;;;;;;;11.40;9.50;;;;;;;4.82;100.00;101083.47;2092803;28;20459;-63
2022/12/15 06:26:43;;;;;;;9.63;8.63;;;;;;;4.86;100.00;101098.03;2095452;28;20298;-63
2022/12/15 06:27:43;;;;;;;10.27;9.07;;;;;;;4.69;100.00;101071.25;2093739;28;20988;-63
2022/12/15 06:28:45;;;;;;;10.87;9.13;;;;;;;4.88;100.00;101100.41;2093230;28;20199;-63
2022/12/15 06:29:45;;;;;;;12.45;9.02;;;;;;;4.90;100.00;101100.78;2093349;28;20291;-63
2022/12/15 06:30:46;;;;;;;10.83;9.00;;;;;;;3.87;100.00;100939.31;2092599;28;20204;-63
2022/12/15 06:31:46;;;;;;;10.57;9.43;;;;;;;4.81;100.00;101081.91;2092482;28;20266;-63
2022/12/15 06:32:47;;;;;;;11.07;9.80;;;;;;;4.92;100.00;101101.22;2091584;28;20184;-63
2022/12/15 06:33:49;;;;;;;10.93;9.60;;;;;;;4.94;100.00;101104.34;2089981;28;20194;-63
2022/12/15 06:34:49;;;;;;;11.65;10.10;;;;;;;4.54;100.00;101041.31;2091815;28;20565;-63
2022/12/15 06:35:50;;;;;;;11.10;9.53;;;;;;;4.97;100.00;101109.09;2091406;28;20894;-63
2022/12/15 06:36:50;;;;;;;12.03;9.53;;;;;;;4.79;100.00;101080.72;2092204;28;20195;-64
2022/12/15 06:37:50;;;;;;;10.97;9.53;;;;;;;4.96;100.00;101110.25;2092345;28;20513;-63
2022/12/15 06:38:51;;;;;;;10.37;9.27;;;;;;;4.99;100.00;101110.28;2093733;28;20206;-63
2022/12/15 06:39:51;;;;;;;11.77;9.57;;;;;;;5.01;100.00;101113.41;2091508;28;20198;-63
2022/12/15 06:40:56;;;;;;;11.90;10.60;;;;;;;5.01;100.00;101118.91;2091200;28;20202;-63
2022/12/15 06:41:56;;;;;;;16.80;12.57;;;;;;;4.92;100.00;101098.47;2091278;28;20199;-63
2022/12/15 06:42:57;;;;;;;14.97;11.27;;;;;;;5.04;100.00;101125.59;2091568;28;20219;-63
2022/12/15 06:43:58;;;;;;;13.17;10.80;;;;;;;5.04;100.00;101129.16;2090575;28;20201;-63
2022/12/15 06:44:59;;;;;;;16.17;11.00;;;;;;;4.85;100.00;101085.47;2093079;28;20600;-63
2022/12/15 06:46:00;;;;;;;15.30;11.17;;;;;;;5.10;100.00;101119.38;2090827;28;20231;-63
2022/12/15 06:47:01;;;;;;;12.85;11.45;;;;;;;5.13;100.00;101124.09;2091870;28;20244;-62
2022/12/15 06:48:02;;;;;;;15.57;11.73;;;;;;;5.08;100.00;101118.94;2091254;28;20228;-63
2022/12/15 06:49:02;;;;;;;15.67;11.90;;;;;;;4.44;100.00;101007.16;2093289;28;20200;-64
2022/12/15 06:50:03;;;;;;;15.07;11.77;;;;;;;5.20;100.00;101123.34;2091169;28;20735;-63
2022/12/15 06:51:06;;;;;;;15.40;12.47;;;;;;;5.23;100.00;101117.09;2089639;28;20573;-62
2022/12/15 06:52:07;;;;;;;15.15;11.93;;;;;;;5.24;100.00;101127.69;2093522;28;20226;-62
2022/12/15 06:53:08;;;;;;;16.20;12.68;;;;;;;5.26;100.00;101132.78;2091102;28;20188;-63
2022/12/15 06:54:09;;;;;;;16.10;12.40;;;;;;;5.28;100.00;101114.75;2089862;28;20196;-63
2022/12/15 06:55:10;;;;;;;17.25;13.35;;;;;;;5.28;100.00;101119.47;2090897;28;20226;-63
2022/12/15 06:56:20;;;;;;;15.87;12.20;;;;;;;5.28;100.00;101125.75;2092177;28;20183;-63
2022/12/15 06:57:20;;;;;;;15.82;11.98;;;;;;;5.30;100.00;101122.63;2090843;28;20184;-63
2022/12/15 06:58:21;;;;;;;16.13;11.73;;;;;;;5.25;100.00;101128.47;2093746;28;20187;-62
2022/12/15 06:59:21;;;;;;;13.37;11.33;;;;;;;5.33;100.00;101133.63;2091448;28;20590;-63
2022/12/15 07:00:22;;;;;;;14.30;11.80;;;;;;;5.36;100.00;101126.56;2091378;28;20225;-62
2022/12/15 07:01:23;;;;;;;14.37;11.70;;;;;;;5.17;100.00;101093.88;2091245;28;20260;-62
2022/12/15 07:02:24;;;;;;;13.25;11.40;;;;;;;5.34;100.00;101121.44;2090574;28;20221;-63
2022/12/15 07:03:24;;;;;;;13.50;11.60;;;;;;;5.42;100.00;101127.78;2092004;28;20184;-63
2022/12/15 07:04:25;;;;;;;15.63;11.57;;;;;;;5.45;100.00;101133.31;2093054;28;20721;-63
2022/12/15 07:05:26;;;;;;;15.20;11.10;;;;;;;5.34;100.00;101106.94;2091166;28;20199;-63
2022/12/15 07:06:33;;;;;;;13.30;11.60;;;;;;;4.92;100.00;101047.06;2082619;28;20689;-63
2022/12/15 07:07:33;;;;;;;14.52;11.93;;;;;;;5.13;100.00;101076.63;2091897;28;20460;-62
2022/12/15 07:08:35;;;;;;;12.40;11.10;;;;;;;5.56;100.00;101139.66;2091223;28;20199;-63
2022/12/15 07:09:35;;;;;;;13.48;11.07;;;;;;;5.64;100.00;101143.22;2091058;28;20190;-63